Bg Felixstowe — V2BR7 — position and weather

sailwx.info

Track history (hours):
 
Tides and Currents Weather Stations Pressure Air Temp Water Temp Dewpoint Dewpoint Depression Visibility Wind Speed Wind Dir Waves Ship Positions

Bg Felixstowe

Last reported at 2015-Jul-03 23:14 UTC. Time now 2015-Jul-04 08:22 UTC.
Position N 25°14' W 080°05'.

Length 139 m; draft 5.7 m.

Type: Ship. MMSI: 304906000.

Date/timePositionNaut miles runAvg speedWind from/ knotsBaromVisibWave heightAir tempDewpointWater temp
2015-Jul-03 23:14N 25°14' W 080°05'1514.3
2015-Jul-03 22:11N 25°29' W 080°01'914.5
2015-Jul-03 21:33N 25°38' W 080°01'1110.8
2015-Jul-03 20:32N 25°46' W 080°09'1 1.0
2015-Jul-03 19:21N 25°46' W 080°10'0 0.0
2015-Jul-03 17:23N 25°46' W 080°10'0 0.0
2015-Jul-03 16:17N 25°46' W 080°10'0 0.0
2015-Jul-03 15:33N 25°46' W 080°10'0 0.0
2015-Jul-03 14:34N 25°46' W 080°10'0 0.0
2015-Jul-03 13:33N 25°46' W 080°10'0 0.0
2015-Jul-03 12:33N 25°46' W 080°10'0 0.0
2015-Jul-03 11:33N 25°46' W 080°10'0 0.0
2015-Jul-03 10:27N 25°46' W 080°10'0 0.0
2015-Jul-03 09:33N 25°46' W 080°10'0 0.0
2015-Jul-03 08:33N 25°46' W 080°10'0 0.0
2015-Jul-03 07:33N 25°46' W 080°10'0 0.0
2015-Jul-03 06:33N 25°46' W 080°10'0 0.0
2015-Jul-03 05:32N 25°46' W 080°10'0 0.0
2015-Jul-03 04:33N 25°46' W 080°10'0 0.0
2015-Jul-03 03:33N 25°46' W 080°10'0 0.0
2015-Jul-03 02:33N 25°46' W 080°10'0 0.0
2015-Jul-03 01:34N 25°46' W 080°10'0 0.0
2015-Jul-03 00:33N 25°46' W 080°10'0 0.0
2015-Jul-02 23:33N 25°46' W 080°10'0 0.0
2015-Jul-02 22:32N 25°46' W 080°10'0 0.0
2015-Jul-02 21:33N 25°46' W 080°10'0 0.0
2015-Jul-02 20:33N 25°46' W 080°10'0 0.0
2015-Jul-02 19:33N 25°46' W 080°10'0 0.0
2015-Jul-02 18:30N 25°46' W 080°10'0 0.0
2015-Jul-02 17:33N 25°46' W 080°10'0 0.0
2015-Jul-02 16:33N 25°46' W 080°10'0 0.0
2015-Jul-02 15:25N 25°46' W 080°10'0 0.0
2015-Jul-02 14:33N 25°46' W 080°10'0 0.0
2015-Jul-02 13:33N 25°46' W 080°10'0 0.0
2015-Jul-02 12:28N 25°46' W 080°10'0 0.0
2015-Jul-02 11:33N 25°46' W 080°10'1 1.3
2015-Jul-02 10:33N 25°46' W 080°09'10 9.6
2015-Jul-02 09:33N 25°40' W 080°01'  
2015-Jun-27 06:33N 25°31' W 080°01'1514.6
2015-Jun-27 05:33N 25°45' W 080°04'5 2.3
2015-Jun-27 03:11N 25°46' W 080°10'0 0.0
2015-Jun-27 01:13N 25°46' W 080°10'0 0.0
2015-Jun-26 23:27N 25°46' W 080°10'0 0.0
2015-Jun-26 22:23N 25°46' W 080°10'0 0.0
2015-Jun-26 21:29N 25°46' W 080°10'0 0.0
2015-Jun-26 20:23N 25°46' W 080°10'0 0.0
2015-Jun-26 19:31N 25°46' W 080°10'0 0.0
2015-Jun-26 18:22N 25°46' W 080°10'0 0.0
2015-Jun-26 16:12N 25°46' W 080°10'0 0.0
2015-Jun-26 15:33N 25°46' W 080°10'0 0.0
2015-Jun-26 14:32N 25°46' W 080°10'0 0.0
2015-Jun-26 13:26N 25°46' W 080°10'0 0.0
2015-Jun-26 12:28N 25°46' W 080°10'0 0.0
2015-Jun-26 11:10N 25°46' W 080°10'0 0.0
2015-Jun-26 10:33N 25°46' W 080°10'0 0.0
2015-Jun-26 09:06N 25°46' W 080°10'0 0.0
2015-Jun-26 07:32N 25°46' W 080°10'0 0.0
2015-Jun-26 06:07N 25°46' W 080°10'0 0.0
2015-Jun-26 04:25N 25°46' W 080°10'0 0.0
2015-Jun-26 03:33N 25°46' W 080°10'0 0.0
2015-Jun-26 02:27N 25°46' W 080°10'0 0.0
2015-Jun-26 01:32N 25°46' W 080°10'0 0.0
2015-Jun-26 00:29N 25°46' W 080°10'0 0.0
2015-Jun-25 23:23N 25°46' W 080°10'0 0.0
2015-Jun-25 21:22N 25°46' W 080°10'0 0.0
2015-Jun-25 19:24N 25°46' W 080°10'0 0.0
2015-Jun-25 18:32N 25°46' W 080°10'0 0.0
2015-Jun-25 13:11N 25°46' W 080°10'2 3.1
2015-Jun-25 12:33N 25°46' W 080°08'4 4.1
2015-Jun-25 11:33N 25°46' W 080°04'0 0.3
2015-Jun-25 10:33N 25°46' W 080°04'7 6.6
2015-Jun-25 09:33N 25°40' W 080°01'  
Track history (hours):
 
Tides and Currents Weather Stations Pressure Air Temp Water Temp Dewpoint Dewpoint Depression Visibility Wind Speed Wind Dir Waves Ship Positions

Bg Felixstowe

Last reported at 2015-Jul-03 23:14 UTC. Time now 2015-Jul-04 08:22 UTC.
Position N 25°14' W 080°05'.

Length 139 m; draft 5.7 m.

Type: Ship. MMSI: 304906000.

Date/timePositionNaut miles runAvg speedWind from/ knotsBaromVisibWave heightAir tempDewpointWater temp
2015-Jul-03 23:14N 25°14' W 080°05'1514.3
2015-Jul-03 22:11N 25°29' W 080°01'914.5
2015-Jul-03 21:33N 25°38' W 080°01'1110.8
2015-Jul-03 20:32N 25°46' W 080°09'1 1.0
2015-Jul-03 19:21N 25°46' W 080°10'0 0.0
2015-Jul-03 17:23N 25°46' W 080°10'0 0.0
2015-Jul-03 16:17N 25°46' W 080°10'0 0.0
2015-Jul-03 15:33N 25°46' W 080°10'0 0.0
2015-Jul-03 14:34N 25°46' W 080°10'0 0.0
2015-Jul-03 13:33N 25°46' W 080°10'0 0.0
2015-Jul-03 12:33N 25°46' W 080°10'0 0.0
2015-Jul-03 11:33N 25°46' W 080°10'0 0.0
2015-Jul-03 10:27N 25°46' W 080°10'0 0.0
2015-Jul-03 09:33N 25°46' W 080°10'0 0.0
2015-Jul-03 08:33N 25°46' W 080°10'0 0.0
2015-Jul-03 07:33N 25°46' W 080°10'0 0.0
2015-Jul-03 06:33N 25°46' W 080°10'0 0.0
2015-Jul-03 05:32N 25°46' W 080°10'0 0.0
2015-Jul-03 04:33N 25°46' W 080°10'0 0.0
2015-Jul-03 03:33N 25°46' W 080°10'0 0.0
2015-Jul-03 02:33N 25°46' W 080°10'0 0.0
2015-Jul-03 01:34N 25°46' W 080°10'0 0.0
2015-Jul-03 00:33N 25°46' W 080°10'0 0.0
2015-Jul-02 23:33N 25°46' W 080°10'0 0.0
2015-Jul-02 22:32N 25°46' W 080°10'0 0.0
2015-Jul-02 21:33N 25°46' W 080°10'0 0.0
2015-Jul-02 20:33N 25°46' W 080°10'0 0.0
2015-Jul-02 19:33N 25°46' W 080°10'0 0.0
2015-Jul-02 18:30N 25°46' W 080°10'0 0.0
2015-Jul-02 17:33N 25°46' W 080°10'0 0.0
2015-Jul-02 16:33N 25°46' W 080°10'0 0.0
2015-Jul-02 15:25N 25°46' W 080°10'0 0.0
2015-Jul-02 14:33N 25°46' W 080°10'0 0.0
2015-Jul-02 13:33N 25°46' W 080°10'0 0.0
2015-Jul-02 12:28N 25°46' W 080°10'0 0.0
2015-Jul-02 11:33N 25°46' W 080°10'1 1.3
2015-Jul-02 10:33N 25°46' W 080°09'10 9.6
2015-Jul-02 09:33N 25°40' W 080°01'  
2015-Jun-27 06:33N 25°31' W 080°01'1514.6
2015-Jun-27 05:33N 25°45' W 080°04'5 2.3
2015-Jun-27 03:11N 25°46' W 080°10'0 0.0
2015-Jun-27 01:13N 25°46' W 080°10'0 0.0
2015-Jun-26 23:27N 25°46' W 080°10'0 0.0
2015-Jun-26 22:23N 25°46' W 080°10'0 0.0
2015-Jun-26 21:29N 25°46' W 080°10'0 0.0
2015-Jun-26 20:23N 25°46' W 080°10'0 0.0
2015-Jun-26 19:31N 25°46' W 080°10'0 0.0
2015-Jun-26 18:22N 25°46' W 080°10'0 0.0
2015-Jun-26 16:12N 25°46' W 080°10'0 0.0
2015-Jun-26 15:33N 25°46' W 080°10'0 0.0
2015-Jun-26 14:32N 25°46' W 080°10'0 0.0
2015-Jun-26 13:26N 25°46' W 080°10'0 0.0
2015-Jun-26 12:28N 25°46' W 080°10'0 0.0
2015-Jun-26 11:10N 25°46' W 080°10'0 0.0
2015-Jun-26 10:33N 25°46' W 080°10'0 0.0
2015-Jun-26 09:06N 25°46' W 080°10'0 0.0
2015-Jun-26 07:32N 25°46' W 080°10'0 0.0
2015-Jun-26 06:07N 25°46' W 080°10'0 0.0
2015-Jun-26 04:25N 25°46' W 080°10'0 0.0
2015-Jun-26 03:33N 25°46' W 080°10'0 0.0
2015-Jun-26 02:27N 25°46' W 080°10'0 0.0
2015-Jun-26 01:32N 25°46' W 080°10'0 0.0
2015-Jun-26 00:29N 25°46' W 080°10'0 0.0
2015-Jun-25 23:23N 25°46' W 080°10'0 0.0
2015-Jun-25 21:22N 25°46' W 080°10'0 0.0
2015-Jun-25 19:24N 25°46' W 080°10'0 0.0
2015-Jun-25 18:32N 25°46' W 080°10'0 0.0
2015-Jun-25 13:11N 25°46' W 080°10'2 3.1
2015-Jun-25 12:33N 25°46' W 080°08'4 4.1
2015-Jun-25 11:33N 25°46' W 080°04'0 0.3
2015-Jun-25 10:33N 25°46' W 080°04'7 6.6
2015-Jun-25 09:33N 25°40' W 080°01'  

Dump ship's entire track history